Main page
METAR-TAF:

METAR-TAF

Airports :

Houari Boumediene Airport

Algiers, Algeria

latitude: 36-43N, longitude: 003-15E, elevation: 25 m

Current weather observation

The report was made 32 minutes ago, at 19:30 UTC
Calm wind
Temperature 8°C
Humidity 81%
Pressure 1026 hPa
Visibility 10 km or more
Few clouds at a height of 2000 ft
Few clouds at a height of 2300 ft, Cumulonimbus.

METAR: DAAG 211930Z 00000KT 9999 FEW020 FEW023CB 08/05 Q1026

Time: 21:02 (20:02 UTC)

Forecast

The report was made 3 hours and 2 minutes ago, at 17:00 UTC
Forecast valid from 21 at 18 UTC to 22 at 18 UTC
Wind 8 kt from the North/Northeast
Visibility 10 km or more
Few clouds at a height of 2000 ft
Temporary
from 21 at 18 UTC to 21 at 24 UTC
Few clouds at a height of 2300 ft, Cumulonimbus.
Probability 30%
from 21 at 22 UTC to 22 at 06 UTC
Visibility: 4000 m
Broken clouds at a height of 1500 ft
mist

TAF: DAAG 211700Z 2118/2218 02008KT 9999 FEW020 TEMPO 2118/2124 FEW023CB PROB30 2122/2206 4000 BR BKN015

Weather observations and forecasts of more than 4000 airports (METAR and TAF reports).

The available stations are represented by yellow and red dots on the map.

Hover mouse over dot to see the name of the station.

Then click to see weather observations and forecasts.

To change the map : click on the green buttons with a black cross to zoom in, on the green button with a dash to zoom out, or on the green arrows for adjacent maps.


METAR-TAF: